Search for airport 
image banner adimage banner adimage banner ad
image banner ad

KELY - Ely Arpt /Yelland Fld/

Located in Ely, United States

ICAO - ELY, IATA - ELY

Data provided by Airmate  

General information

Coordinates: N39°17'59" W114°50'31"
Elevation is 6260 feet MSL.
Magnetic variation is 14° East
View others Airports in Nevada

Operational data

Special qualification required
Current time UTC:
Current local time:
Weather
METAR: KELY 092253Z AUTO 04013KT 10SM BKN100 14/M08 A2999 RMK AO2 WSHFT 2211 SLP113 T01391078
TAF: KELY 091721Z 0918/1018 36005KT P6SM BKN160 BKN200 FM092100 31007KT P6SM BKN160 BKN200 FM100000 31010G18KT P6SM FEW070 BKN090 BKN150 FM100300 01009KT P6SM SCT100 BKN150
View NOTAMs / SUP AIP / TFR affecting this airport [VIEW]
Communications frequencies: [VIEW]

Runways:

RWY identifierQFULength (ft)Width (ft)SurfaceLDA (ft)
12141°482560ASPH
30321°482560ASPH
18194°6017150ASPH
3614°6017150ASPH

Airport contact information

Address: Ely United States

Satellite view of KELY